sensor_id;sensor_type;location;lat;lon;timestamp;P1;durP1;ratioP1;P2;durP2;ratioP2
55913;SDS011;58179;48.776;9.124;2023-04-25T00:00:02;3.22;;;2.80;;
55913;SDS011;58179;48.776;9.124;2023-04-25T00:02:31;3.28;;;2.80;;
55913;SDS011;58179;48.776;9.124;2023-04-25T00:04:59;5.40;;;2.97;;
55913;SDS011;58179;48.776;9.124;2023-04-25T00:07:26;4.30;;;2.97;;
55913;SDS011;58179;48.776;9.124;2023-04-25T00:09:52;4.25;;;2.70;;
55913;SDS011;58179;48.776;9.124;2023-04-25T00:12:19;4.22;;;2.90;;
55913;SDS011;58179;48.776;9.124;2023-04-25T00:14:45;5.47;;;3.20;;
55913;SDS011;58179;48.776;9.124;2023-04-25T00:17:12;4.00;;;2.85;;
55913;SDS011;58179;48.776;9.124;2023-04-25T00:19:38;5.10;;;2.90;;
55913;SDS011;58179;48.776;9.124;2023-04-25T00:22:04;2.88;;;2.50;;
55913;SDS011;58179;48.776;9.124;2023-04-25T00:24:30;3.80;;;3.30;;
55913;SDS011;58179;48.776;9.124;2023-04-25T00:26:56;5.70;;;3.23;;
55913;SDS011;58179;48.776;9.124;2023-04-25T00:29:22;7.25;;;3.40;;
55913;SDS011;58179;48.776;9.124;2023-04-25T00:31:48;4.78;;;3.33;;
55913;SDS011;58179;48.776;9.124;2023-04-25T00:34:15;3.45;;;2.80;;
55913;SDS011;58179;48.776;9.124;2023-04-25T00:36:41;4.20;;;3.28;;
55913;SDS011;58179;48.776;9.124;2023-04-25T00:39:07;4.70;;;3.15;;
55913;SDS011;58179;48.776;9.124;2023-04-25T00:41:33;4.77;;;3.40;;
55913;SDS011;58179;48.776;9.124;2023-04-25T00:43:59;3.63;;;3.30;;
55913;SDS011;58179;48.776;9.124;2023-04-25T00:46:27;7.40;;;3.30;;
55913;SDS011;58179;48.776;9.124;2023-04-25T00:48:52;5.10;;;3.30;;
55913;SDS011;58179;48.776;9.124;2023-04-25T00:51:20;4.60;;;2.90;;
55913;SDS011;58179;48.776;9.124;2023-04-25T00:53:47;4.85;;;3.30;;
55913;SDS011;58179;48.776;9.124;2023-04-25T00:56:14;6.65;;;3.50;;
55913;SDS011;58179;48.776;9.124;2023-04-25T00:58:41;4.75;;;3.20;;
55913;SDS011;58179;48.776;9.124;2023-04-25T01:01:08;3.65;;;3.17;;
55913;SDS011;58179;48.776;9.124;2023-04-25T01:03:35;4.97;;;3.50;;
55913;SDS011;58179;48.776;9.124;2023-04-25T01:06:08;3.92;;;3.25;;
55913;SDS011;58179;48.776;9.124;2023-04-25T01:08:37;5.50;;;3.30;;
55913;SDS011;58179;48.776;9.124;2023-04-25T01:11:04;4.93;;;3.38;;
55913;SDS011;58179;48.776;9.124;2023-04-25T01:13:30;5.07;;;3.25;;
55913;SDS011;58179;48.776;9.124;2023-04-25T01:15:57;4.53;;;3.35;;
55913;SDS011;58179;48.776;9.124;2023-04-25T01:18:23;3.95;;;3.38;;
55913;SDS011;58179;48.776;9.124;2023-04-25T01:20:50;5.00;;;3.60;;
55913;SDS011;58179;48.776;9.124;2023-04-25T01:23:18;4.43;;;3.50;;
55913;SDS011;58179;48.776;9.124;2023-04-25T01:25:45;4.70;;;3.88;;
55913;SDS011;58179;48.776;9.124;2023-04-25T01:28:11;5.50;;;3.70;;
55913;SDS011;58179;48.776;9.124;2023-04-25T01:30:38;5.72;;;3.70;;
55913;SDS011;58179;48.776;9.124;2023-04-25T01:33:04;6.03;;;3.33;;
55913;SDS011;58179;48.776;9.124;2023-04-25T01:35:31;5.00;;;3.42;;
55913;SDS011;58179;48.776;9.124;2023-04-25T01:37:57;4.15;;;3.33;;
55913;SDS011;58179;48.776;9.124;2023-04-25T01:40:25;5.43;;;3.60;;
55913;SDS011;58179;48.776;9.124;2023-04-25T01:42:53;3.95;;;3.55;;
55913;SDS011;58179;48.776;9.124;2023-04-25T01:45:19;4.45;;;4.00;;
55913;SDS011;58179;48.776;9.124;2023-04-25T01:47:46;4.97;;;3.30;;
55913;SDS011;58179;48.776;9.124;2023-04-25T01:50:14;5.47;;;3.83;;
55913;SDS011;58179;48.776;9.124;2023-04-25T01:52:42;6.25;;;3.85;;
55913;SDS011;58179;48.776;9.124;2023-04-25T01:55:08;4.50;;;4.00;;
55913;SDS011;58179;48.776;9.124;2023-04-25T01:57:36;6.63;;;4.22;;
55913;SDS011;58179;48.776;9.124;2023-04-25T02:00:04;6.60;;;3.80;;
55913;SDS011;58179;48.776;9.124;2023-04-25T02:02:32;5.25;;;3.50;;
55913;SDS011;58179;48.776;9.124;2023-04-25T02:04:58;5.93;;;4.10;;
55913;SDS011;58179;48.776;9.124;2023-04-25T02:07:25;4.10;;;3.53;;
55913;SDS011;58179;48.776;9.124;2023-04-25T02:09:51;5.05;;;4.07;;
55913;SDS011;58179;48.776;9.124;2023-04-25T02:12:17;7.97;;;3.95;;
55913;SDS011;58179;48.776;9.124;2023-04-25T02:14:45;7.63;;;4.10;;
55913;SDS011;58179;48.776;9.124;2023-04-25T02:17:10;5.72;;;3.72;;
55913;SDS011;58179;48.776;9.124;2023-04-25T02:19:37;7.13;;;3.78;;
55913;SDS011;58179;48.776;9.124;2023-04-25T02:22:03;5.60;;;3.80;;
55913;SDS011;58179;48.776;9.124;2023-04-25T02:24:29;4.65;;;3.80;;
55913;SDS011;58179;48.776;9.124;2023-04-25T02:26:56;5.10;;;3.80;;
55913;SDS011;58179;48.776;9.124;2023-04-25T02:29:22;7.88;;;4.07;;
55913;SDS011;58179;48.776;9.124;2023-04-25T02:31:49;4.60;;;3.90;;
55913;SDS011;58179;48.776;9.124;2023-04-25T02:34:15;7.70;;;4.35;;
55913;SDS011;58179;48.776;9.124;2023-04-25T02:36:41;5.35;;;4.57;;
55913;SDS011;58179;48.776;9.124;2023-04-25T02:39:07;8.00;;;4.75;;
55913;SDS011;58179;48.776;9.124;2023-04-25T02:41:33;7.25;;;4.43;;
55913;SDS011;58179;48.776;9.124;2023-04-25T02:43:59;7.43;;;4.32;;
55913;SDS011;58179;48.776;9.124;2023-04-25T02:46:25;6.88;;;4.00;;
55913;SDS011;58179;48.776;9.124;2023-04-25T02:48:52;5.80;;;3.95;;
55913;SDS011;58179;48.776;9.124;2023-04-25T02:51:18;5.97;;;4.15;;
55913;SDS011;58179;48.776;9.124;2023-04-25T02:53:44;6.47;;;4.30;;
55913;SDS011;58179;48.776;9.124;2023-04-25T02:56:10;6.30;;;4.72;;
55913;SDS011;58179;48.776;9.124;2023-04-25T02:58:36;6.57;;;4.25;;
55913;SDS011;58179;48.776;9.124;2023-04-25T03:01:02;7.38;;;4.50;;
55913;SDS011;58179;48.776;9.124;2023-04-25T03:03:28;6.63;;;4.10;;
55913;SDS011;58179;48.776;9.124;2023-04-25T03:05:55;5.90;;;4.25;;
55913;SDS011;58179;48.776;9.124;2023-04-25T03:08:21;5.22;;;4.05;;
55913;SDS011;58179;48.776;9.124;2023-04-25T03:10:47;7.65;;;4.55;;
55913;SDS011;58179;48.776;9.124;2023-04-25T03:13:15;6.47;;;4.32;;
55913;SDS011;58179;48.776;9.124;2023-04-25T03:15:41;5.47;;;4.38;;
55913;SDS011;58179;48.776;9.124;2023-04-25T03:18:06;7.43;;;4.10;;
55913;SDS011;58179;48.776;9.124;2023-04-25T03:20:32;5.20;;;4.18;;
55913;SDS011;58179;48.776;9.124;2023-04-25T03:23:00;5.72;;;3.83;;
55913;SDS011;58179;48.776;9.124;2023-04-25T03:25:25;5.95;;;4.00;;
55913;SDS011;58179;48.776;9.124;2023-04-25T03:27:51;8.77;;;4.90;;
55913;SDS011;58179;48.776;9.124;2023-04-25T03:30:17;6.00;;;4.35;;
55913;SDS011;58179;48.776;9.124;2023-04-25T03:32:43;6.97;;;4.70;;
55913;SDS011;58179;48.776;9.124;2023-04-25T03:35:09;4.50;;;4.03;;
55913;SDS011;58179;48.776;9.124;2023-04-25T03:37:35;5.82;;;4.03;;
55913;SDS011;58179;48.776;9.124;2023-04-25T03:40:02;5.57;;;4.38;;
55913;SDS011;58179;48.776;9.124;2023-04-25T03:42:30;8.45;;;4.45;;
55913;SDS011;58179;48.776;9.124;2023-04-25T03:44:55;4.28;;;3.88;;
55913;SDS011;58179;48.776;9.124;2023-04-25T03:47:21;5.22;;;4.15;;
55913;SDS011;58179;48.776;9.124;2023-04-25T03:49:47;7.00;;;4.38;;
55913;SDS011;58179;48.776;9.124;2023-04-25T03:52:14;6.50;;;4.13;;
55913;SDS011;58179;48.776;9.124;2023-04-25T03:54:40;5.72;;;4.03;;
55913;SDS011;58179;48.776;9.124;2023-04-25T03:57:07;4.72;;;4.13;;
55913;SDS011;58179;48.776;9.124;2023-04-25T03:59:33;4.97;;;4.25;;
55913;SDS011;58179;48.776;9.124;2023-04-25T04:01:59;6.25;;;4.43;;
55913;SDS011;58179;48.776;9.124;2023-04-25T04:04:25;5.65;;;3.53;;
55913;SDS011;58179;48.776;9.124;2023-04-25T04:06:51;8.70;;;4.37;;
55913;SDS011;58179;48.776;9.124;2023-04-25T04:09:17;5.28;;;3.97;;
55913;SDS011;58179;48.776;9.124;2023-04-25T04:11:44;5.43;;;4.30;;
55913;SDS011;58179;48.776;9.124;2023-04-25T04:14:11;8.00;;;4.53;;
55913;SDS011;58179;48.776;9.124;2023-04-25T04:16:40;6.57;;;4.57;;
55913;SDS011;58179;48.776;9.124;2023-04-25T04:19:06;10.05;;;6.05;;
55913;SDS011;58179;48.776;9.124;2023-04-25T04:21:32;5.82;;;4.82;;
55913;SDS011;58179;48.776;9.124;2023-04-25T04:23:58;11.27;;;5.78;;
55913;SDS011;58179;48.776;9.124;2023-04-25T04:26:25;9.43;;;5.40;;
55913;SDS011;58179;48.776;9.124;2023-04-25T04:28:51;10.35;;;5.78;;
55913;SDS011;58179;48.776;9.124;2023-04-25T04:31:20;8.05;;;5.05;;
55913;SDS011;58179;48.776;9.124;2023-04-25T04:33:46;6.82;;;5.57;;
55913;SDS011;58179;48.776;9.124;2023-04-25T04:36:13;8.80;;;5.40;;
55913;SDS011;58179;48.776;9.124;2023-04-25T04:38:38;7.32;;;4.90;;
55913;SDS011;58179;48.776;9.124;2023-04-25T04:41:06;9.98;;;5.70;;
55913;SDS011;58179;48.776;9.124;2023-04-25T04:43:32;10.52;;;5.45;;
55913;SDS011;58179;48.776;9.124;2023-04-25T04:45:58;8.50;;;5.57;;
55913;SDS011;58179;48.776;9.124;2023-04-25T04:48:27;7.38;;;5.35;;
55913;SDS011;58179;48.776;9.124;2023-04-25T04:50:53;5.85;;;4.72;;
55913;SDS011;58179;48.776;9.124;2023-04-25T04:53:19;7.97;;;5.28;;
55913;SDS011;58179;48.776;9.124;2023-04-25T04:55:44;10.63;;;5.40;;
55913;SDS011;58179;48.776;9.124;2023-04-25T04:58:11;8.20;;;5.13;;
55913;SDS011;58179;48.776;9.124;2023-04-25T05:00:37;6.38;;;4.70;;
55913;SDS011;58179;48.776;9.124;2023-04-25T05:03:03;10.10;;;5.38;;
55913;SDS011;58179;48.776;9.124;2023-04-25T05:05:31;6.10;;;5.17;;
55913;SDS011;58179;48.776;9.124;2023-04-25T05:07:57;8.77;;;4.90;;
55913;SDS011;58179;48.776;9.124;2023-04-25T05:10:23;6.97;;;4.90;;
55913;SDS011;58179;48.776;9.124;2023-04-25T05:12:50;6.80;;;4.50;;
55913;SDS011;58179;48.776;9.124;2023-04-25T05:15:16;10.55;;;5.35;;
55913;SDS011;58179;48.776;9.124;2023-04-25T05:17:42;7.85;;;5.00;;
55913;SDS011;58179;48.776;9.124;2023-04-25T05:20:08;6.97;;;5.13;;
55913;SDS011;58179;48.776;9.124;2023-04-25T05:22:36;8.18;;;5.10;;
55913;SDS011;58179;48.776;9.124;2023-04-25T05:25:02;6.57;;;5.28;;
55913;SDS011;58179;48.776;9.124;2023-04-25T05:27:29;8.52;;;5.40;;
55913;SDS011;58179;48.776;9.124;2023-04-25T05:29:54;8.90;;;5.37;;
55913;SDS011;58179;48.776;9.124;2023-04-25T05:32:20;9.98;;;5.20;;
55913;SDS011;58179;48.776;9.124;2023-04-25T05:34:46;9.02;;;5.75;;
55913;SDS011;58179;48.776;9.124;2023-04-25T05:37:12;9.52;;;5.88;;
55913;SDS011;58179;48.776;9.124;2023-04-25T05:39:39;7.32;;;5.85;;
55913;SDS011;58179;48.776;9.124;2023-04-25T05:42:05;8.32;;;5.82;;
55913;SDS011;58179;48.776;9.124;2023-04-25T05:44:31;7.38;;;5.68;;
55913;SDS011;58179;48.776;9.124;2023-04-25T05:46:57;7.80;;;5.35;;
55913;SDS011;58179;48.776;9.124;2023-04-25T05:49:23;6.78;;;5.20;;
55913;SDS011;58179;48.776;9.124;2023-04-25T05:51:49;8.32;;;5.50;;
55913;SDS011;58179;48.776;9.124;2023-04-25T05:54:15;9.93;;;5.88;;
55913;SDS011;58179;48.776;9.124;2023-04-25T05:56:42;5.67;;;4.50;;
55913;SDS011;58179;48.776;9.124;2023-04-25T05:59:08;6.32;;;5.05;;
55913;SDS011;58179;48.776;9.124;2023-04-25T06:01:34;6.78;;;5.10;;
55913;SDS011;58179;48.776;9.124;2023-04-25T06:04:00;6.63;;;5.17;;
55913;SDS011;58179;48.776;9.124;2023-04-25T06:06:26;6.10;;;5.15;;
55913;SDS011;58179;48.776;9.124;2023-04-25T06:08:52;8.38;;;5.18;;
55913;SDS011;58179;48.776;9.124;2023-04-25T06:11:19;6.97;;;5.55;;
55913;SDS011;58179;48.776;9.124;2023-04-25T06:13:46;5.85;;;4.63;;
55913;SDS011;58179;48.776;9.124;2023-04-25T06:16:12;5.82;;;4.90;;
55913;SDS011;58179;48.776;9.124;2023-04-25T06:18:38;8.15;;;5.13;;
55913;SDS011;58179;48.776;9.124;2023-04-25T06:21:04;6.18;;;4.47;;
55913;SDS011;58179;48.776;9.124;2023-04-25T06:23:30;6.10;;;4.75;;
55913;SDS011;58179;48.776;9.124;2023-04-25T06:25:56;6.53;;;4.30;;
55913;SDS011;58179;48.776;9.124;2023-04-25T06:28:22;5.72;;;4.32;;
55913;SDS011;58179;48.776;9.124;2023-04-25T06:30:50;7.67;;;5.53;;
55913;SDS011;58179;48.776;9.124;2023-04-25T06:33:16;8.13;;;5.72;;
55913;SDS011;58179;48.776;9.124;2023-04-25T06:35:42;8.10;;;5.78;;
55913;SDS011;58179;48.776;9.124;2023-04-25T06:38:08;8.90;;;6.23;;
55913;SDS011;58179;48.776;9.124;2023-04-25T06:40:34;9.75;;;6.97;;
55913;SDS011;58179;48.776;9.124;2023-04-25T06:43:00;14.02;;;7.65;;
55913;SDS011;58179;48.776;9.124;2023-04-25T06:45:26;13.30;;;7.40;;
55913;SDS011;58179;48.776;9.124;2023-04-25T06:47:53;12.32;;;8.15;;
55913;SDS011;58179;48.776;9.124;2023-04-25T06:50:19;15.05;;;8.23;;
55913;SDS011;58179;48.776;9.124;2023-04-25T06:52:45;14.68;;;7.88;;
55913;SDS011;58179;48.776;9.124;2023-04-25T06:55:11;12.43;;;7.68;;
55913;SDS011;58179;48.776;9.124;2023-04-25T06:57:37;17.45;;;9.23;;
55913;SDS011;58179;48.776;9.124;2023-04-25T07:00:03;19.20;;;8.80;;
55913;SDS011;58179;48.776;9.124;2023-04-25T07:02:33;18.20;;;9.40;;
55913;SDS011;58179;48.776;9.124;2023-04-25T07:05:00;17.42;;;9.07;;
55913;SDS011;58179;48.776;9.124;2023-04-25T07:07:29;17.00;;;8.73;;
55913;SDS011;58179;48.776;9.124;2023-04-25T07:09:55;17.13;;;9.05;;
55913;SDS011;58179;48.776;9.124;2023-04-25T07:12:21;19.90;;;9.77;;
55913;SDS011;58179;48.776;9.124;2023-04-25T07:14:47;15.13;;;8.60;;
55913;SDS011;58179;48.776;9.124;2023-04-25T07:17:13;18.77;;;9.90;;
55913;SDS011;58179;48.776;9.124;2023-04-25T07:19:40;21.30;;;10.05;;
55913;SDS011;58179;48.776;9.124;2023-04-25T07:22:07;16.65;;;9.00;;
55913;SDS011;58179;48.776;9.124;2023-04-25T07:24:33;21.90;;;10.73;;
55913;SDS011;58179;48.776;9.124;2023-04-25T07:26:59;21.95;;;10.52;;
55913;SDS011;58179;48.776;9.124;2023-04-25T07:29:26;20.65;;;11.20;;
55913;SDS011;58179;48.776;9.124;2023-04-25T07:31:54;23.75;;;11.23;;
55913;SDS011;58179;48.776;9.124;2023-04-25T07:34:20;19.70;;;10.85;;
55913;SDS011;58179;48.776;9.124;2023-04-25T07:36:46;20.15;;;10.00;;
55913;SDS011;58179;48.776;9.124;2023-04-25T07:39:14;23.45;;;11.43;;
55913;SDS011;58179;48.776;9.124;2023-04-25T07:41:40;23.67;;;11.27;;
55913;SDS011;58179;48.776;9.124;2023-04-25T07:44:06;26.60;;;12.48;;
55913;SDS011;58179;48.776;9.124;2023-04-25T07:52:38;29.10;;;13.68;;
55913;SDS011;58179;48.776;9.124;2023-04-25T07:55:06;37.22;;;14.98;;
55913;SDS011;58179;48.776;9.124;2023-04-25T07:57:32;37.17;;;14.20;;
55913;SDS011;58179;48.776;9.124;2023-04-25T07:59:58;41.58;;;16.33;;
55913;SDS011;58179;48.776;9.124;2023-04-25T08:02:25;31.70;;;14.52;;
55913;SDS011;58179;48.776;9.124;2023-04-25T08:04:53;44.22;;;15.35;;
55913;SDS011;58179;48.776;9.124;2023-04-25T08:07:19;39.83;;;14.20;;
55913;SDS011;58179;48.776;9.124;2023-04-25T08:09:44;51.53;;;17.45;;
55913;SDS011;58179;48.776;9.124;2023-04-25T08:12:12;52.60;;;15.93;;
55913;SDS011;58179;48.776;9.124;2023-04-25T08:14:37;49.03;;;15.93;;
55913;SDS011;58179;48.776;9.124;2023-04-25T08:17:04;34.08;;;14.02;;
55913;SDS011;58179;48.776;9.124;2023-04-25T08:19:30;44.53;;;14.80;;
55913;SDS011;58179;48.776;9.124;2023-04-25T08:21:56;61.60;;;18.83;;
55913;SDS011;58179;48.776;9.124;2023-04-25T08:24:22;49.83;;;16.20;;
55913;SDS011;58179;48.776;9.124;2023-04-25T08:26:48;53.22;;;16.90;;
55913;SDS011;58179;48.776;9.124;2023-04-25T08:29:16;63.17;;;18.30;;
55913;SDS011;58179;48.776;9.124;2023-04-25T08:31:41;62.70;;;18.45;;
55913;SDS011;58179;48.776;9.124;2023-04-25T08:34:09;56.03;;;16.73;;
55913;SDS011;58179;48.776;9.124;2023-04-25T08:36:36;52.88;;;18.05;;
55913;SDS011;58179;48.776;9.124;2023-04-25T08:39:02;64.90;;;18.73;;
55913;SDS011;58179;48.776;9.124;2023-04-25T08:41:28;51.53;;;18.05;;
55913;SDS011;58179;48.776;9.124;2023-04-25T08:43:54;67.93;;;18.75;;
55913;SDS011;58179;48.776;9.124;2023-04-25T08:46:26;55.45;;;17.60;;
55913;SDS011;58179;48.776;9.124;2023-04-25T08:48:53;57.30;;;17.90;;
55913;SDS011;58179;48.776;9.124;2023-04-25T08:51:27;47.65;;;16.08;;
55913;SDS011;58179;48.776;9.124;2023-04-25T08:53:56;37.17;;;15.90;;
55913;SDS011;58179;48.776;9.124;2023-04-25T08:56:33;49.80;;;16.83;;
55913;SDS011;58179;48.776;9.124;2023-04-25T08:59:00;47.20;;;16.77;;
55913;SDS011;58179;48.776;9.124;2023-04-25T09:01:28;65.63;;;18.27;;
55913;SDS011;58179;48.776;9.124;2023-04-25T09:03:54;50.40;;;17.38;;
55913;SDS011;58179;48.776;9.124;2023-04-25T09:06:22;48.28;;;15.80;;
55913;SDS011;58179;48.776;9.124;2023-04-25T09:08:49;60.10;;;17.63;;
55913;SDS011;58179;48.776;9.124;2023-04-25T09:11:15;61.55;;;17.73;;
55913;SDS011;58179;48.776;9.124;2023-04-25T09:13:41;55.75;;;17.42;;
55913;SDS011;58179;48.776;9.124;2023-04-25T09:16:07;62.53;;;18.13;;
55913;SDS011;58179;48.776;9.124;2023-04-25T09:18:34;54.05;;;17.00;;
55913;SDS011;58179;48.776;9.124;2023-04-25T09:21:04;57.55;;;17.92;;
55913;SDS011;58179;48.776;9.124;2023-04-25T09:23:38;60.33;;;18.07;;
55913;SDS011;58179;48.776;9.124;2023-04-25T09:26:06;59.17;;;19.10;;
55913;SDS011;58179;48.776;9.124;2023-04-25T12:38:33;59.78;;;17.70;;
55913;SDS011;58179;48.776;9.124;2023-04-25T12:41:02;52.63;;;15.68;;
55913;SDS011;58179;48.776;9.124;2023-04-25T12:43:28;65.72;;;18.55;;
55913;SDS011;58179;48.776;9.124;2023-04-25T12:45:54;40.45;;;15.07;;
55913;SDS011;58179;48.776;9.124;2023-04-25T12:48:21;48.97;;;14.57;;
55913;SDS011;58179;48.776;9.124;2023-04-25T12:50:48;41.67;;;14.63;;
55913;SDS011;58179;48.776;9.124;2023-04-25T12:53:16;35.45;;;13.45;;
55913;SDS011;58179;48.776;9.124;2023-04-25T12:55:45;25.35;;;11.25;;
55913;SDS011;58179;48.776;9.124;2023-04-25T12:58:11;34.00;;;11.40;;
55913;SDS011;58179;48.776;9.124;2023-04-25T13:00:37;31.33;;;10.57;;
55913;SDS011;58179;48.776;9.124;2023-04-25T13:03:03;23.92;;;10.82;;
55913;SDS011;58179;48.776;9.124;2023-04-25T13:05:29;21.40;;;9.60;;
55913;SDS011;58179;48.776;9.124;2023-04-25T13:07:55;30.88;;;10.57;;
55913;SDS011;58179;48.776;9.124;2023-04-25T13:10:22;16.27;;;8.98;;
55913;SDS011;58179;48.776;9.124;2023-04-25T13:12:49;10.48;;;6.85;;
55913;SDS011;58179;48.776;9.124;2023-04-25T13:15:15;9.15;;;6.90;;
55913;SDS011;58179;48.776;9.124;2023-04-25T13:17:42;7.82;;;6.38;;
55913;SDS011;58179;48.776;9.124;2023-04-25T13:20:08;9.18;;;7.05;;
55913;SDS011;58179;48.776;9.124;2023-04-25T13:22:35;13.02;;;7.45;;
55913;SDS011;58179;48.776;9.124;2023-04-25T13:25:01;13.10;;;8.18;;
55913;SDS011;58179;48.776;9.124;2023-04-25T13:27:28;18.02;;;9.05;;
55913;SDS011;58179;48.776;9.124;2023-04-25T13:29:56;19.92;;;11.63;;
55913;SDS011;58179;48.776;9.124;2023-04-25T13:32:22;14.52;;;9.75;;
55913;SDS011;58179;48.776;9.124;2023-04-25T13:34:48;17.17;;;10.38;;
55913;SDS011;58179;48.776;9.124;2023-04-25T13:37:16;18.02;;;9.90;;
55913;SDS011;58179;48.776;9.124;2023-04-25T13:39:42;15.93;;;10.60;;
55913;SDS011;58179;48.776;9.124;2023-04-25T13:42:08;19.50;;;11.90;;
55913;SDS011;58179;48.776;9.124;2023-04-25T13:44:33;22.80;;;11.43;;
55913;SDS011;58179;48.776;9.124;2023-04-25T13:47:01;25.95;;;13.98;;
55913;SDS011;58179;48.776;9.124;2023-04-25T13:49:27;23.90;;;13.48;;
55913;SDS011;58179;48.776;9.124;2023-04-25T13:51:52;20.95;;;12.50;;
55913;SDS011;58179;48.776;9.124;2023-04-25T13:54:18;18.73;;;11.38;;
55913;SDS011;58179;48.776;9.124;2023-04-25T13:56:44;22.70;;;12.38;;
55913;SDS011;58179;48.776;9.124;2023-04-25T13:59:10;17.03;;;11.13;;
55913;SDS011;58179;48.776;9.124;2023-04-25T14:01:36;17.90;;;11.32;;
55913;SDS011;58179;48.776;9.124;2023-04-25T14:04:04;16.60;;;9.88;;
55913;SDS011;58179;48.776;9.124;2023-04-25T14:06:31;21.02;;;12.23;;
55913;SDS011;58179;48.776;9.124;2023-04-25T14:08:57;16.55;;;8.57;;
55913;SDS011;58179;48.776;9.124;2023-04-25T14:11:29;12.63;;;8.00;;
55913;SDS011;58179;48.776;9.124;2023-04-25T14:13:55;9.50;;;6.35;;
55913;SDS011;58179;48.776;9.124;2023-04-25T14:16:21;10.23;;;7.10;;
55913;SDS011;58179;48.776;9.124;2023-04-25T14:18:48;11.95;;;6.30;;
55913;SDS011;58179;48.776;9.124;2023-04-25T14:21:15;8.07;;;5.53;;
55913;SDS011;58179;48.776;9.124;2023-04-25T14:23:41;5.82;;;4.25;;
55913;SDS011;58179;48.776;9.124;2023-04-25T14:26:07;6.45;;;4.85;;
55913;SDS011;58179;48.776;9.124;2023-04-25T14:28:36;8.10;;;5.28;;
55913;SDS011;58179;48.776;9.124;2023-04-25T14:31:02;7.72;;;5.93;;
55913;SDS011;58179;48.776;9.124;2023-04-25T14:33:29;8.52;;;5.68;;
55913;SDS011;58179;48.776;9.124;2023-04-25T14:35:55;12.00;;;7.15;;
55913;SDS011;58179;48.776;9.124;2023-04-25T14:38:23;9.20;;;6.90;;
55913;SDS011;58179;48.776;9.124;2023-04-25T14:40:50;12.98;;;7.78;;
55913;SDS011;58179;48.776;9.124;2023-04-25T14:43:16;10.90;;;7.55;;
55913;SDS011;58179;48.776;9.124;2023-04-25T14:45:42;12.25;;;8.43;;
55913;SDS011;58179;48.776;9.124;2023-04-25T14:48:09;12.55;;;8.18;;
55913;SDS011;58179;48.776;9.124;2023-04-25T14:50:36;11.88;;;7.47;;
55913;SDS011;58179;48.776;9.124;2023-04-25T14:53:02;12.30;;;7.70;;
55913;SDS011;58179;48.776;9.124;2023-04-25T14:55:29;13.18;;;8.30;;
55913;SDS011;58179;48.776;9.124;2023-04-25T14:57:55;15.00;;;8.60;;
55913;SDS011;58179;48.776;9.124;2023-04-25T15:00:21;10.82;;;7.93;;
55913;SDS011;58179;48.776;9.124;2023-04-25T15:02:48;11.18;;;7.55;;
55913;SDS011;58179;48.776;9.124;2023-04-25T15:05:14;14.05;;;8.68;;
55913;SDS011;58179;48.776;9.124;2023-04-25T15:07:41;10.95;;;8.15;;
55913;SDS011;58179;48.776;9.124;2023-04-25T15:10:07;8.00;;;4.97;;
55913;SDS011;58179;48.776;9.124;2023-04-25T15:12:39;11.73;;;6.40;;
55913;SDS011;58179;48.776;9.124;2023-04-25T15:15:06;9.20;;;5.90;;
55913;SDS011;58179;48.776;9.124;2023-04-25T15:17:37;8.10;;;5.70;;
55913;SDS011;58179;48.776;9.124;2023-04-25T15:20:03;9.35;;;5.55;;
55913;SDS011;58179;48.776;9.124;2023-04-25T15:22:31;8.75;;;5.47;;
55913;SDS011;58179;48.776;9.124;2023-04-25T15:24:57;8.40;;;5.93;;
55913;SDS011;58179;48.776;9.124;2023-04-25T15:27:23;10.60;;;7.57;;
55913;SDS011;58179;48.776;9.124;2023-04-25T15:29:50;7.40;;;5.38;;
55913;SDS011;58179;48.776;9.124;2023-04-25T15:32:17;7.82;;;5.40;;
55913;SDS011;58179;48.776;9.124;2023-04-25T15:34:44;9.32;;;5.80;;
55913;SDS011;58179;48.776;9.124;2023-04-25T15:37:09;7.65;;;6.18;;
55913;SDS011;58179;48.776;9.124;2023-04-25T15:39:36;6.72;;;5.57;;
55913;SDS011;58179;48.776;9.124;2023-04-25T15:42:03;9.07;;;6.03;;
55913;SDS011;58179;48.776;9.124;2023-04-25T15:44:29;9.82;;;5.75;;
55913;SDS011;58179;48.776;9.124;2023-04-25T15:46:56;10.40;;;6.13;;
55913;SDS011;58179;48.776;9.124;2023-04-25T15:49:22;9.80;;;6.57;;
55913;SDS011;58179;48.776;9.124;2023-04-25T15:51:48;9.20;;;6.03;;
55913;SDS011;58179;48.776;9.124;2023-04-25T15:54:14;11.45;;;7.38;;
55913;SDS011;58179;48.776;9.124;2023-04-25T15:56:42;13.02;;;8.55;;
55913;SDS011;58179;48.776;9.124;2023-04-25T15:59:09;12.80;;;7.65;;
55913;SDS011;58179;48.776;9.124;2023-04-25T16:01:35;15.55;;;9.20;;
55913;SDS011;58179;48.776;9.124;2023-04-25T16:04:03;16.65;;;9.48;;
55913;SDS011;58179;48.776;9.124;2023-04-25T16:06:29;15.35;;;10.00;;
55913;SDS011;58179;48.776;9.124;2023-04-25T16:08:55;17.48;;;10.20;;
55913;SDS011;58179;48.776;9.124;2023-04-25T16:11:21;19.30;;;11.25;;
55913;SDS011;58179;48.776;9.124;2023-04-25T16:13:47;17.47;;;10.97;;
55913;SDS011;58179;48.776;9.124;2023-04-25T16:16:14;18.73;;;11.07;;
55913;SDS011;58179;48.776;9.124;2023-04-25T16:18:40;22.30;;;14.05;;
55913;SDS011;58179;48.776;9.124;2023-04-25T16:21:07;24.77;;;12.68;;
55913;SDS011;58179;48.776;9.124;2023-04-25T16:23:33;18.15;;;10.70;;
55913;SDS011;58179;48.776;9.124;2023-04-25T16:25:59;23.80;;;12.20;;
55913;SDS011;58179;48.776;9.124;2023-04-25T16:28:25;20.17;;;12.05;;
55913;SDS011;58179;48.776;9.124;2023-04-25T16:30:51;19.33;;;11.02;;
55913;SDS011;58179;48.776;9.124;2023-04-25T16:33:17;21.60;;;11.60;;
55913;SDS011;58179;48.776;9.124;2023-04-25T16:35:43;19.57;;;11.63;;
55913;SDS011;58179;48.776;9.124;2023-04-25T16:38:10;16.85;;;10.98;;
55913;SDS011;58179;48.776;9.124;2023-04-25T16:40:36;21.75;;;11.13;;
55913;SDS011;58179;48.776;9.124;2023-04-25T16:43:02;17.40;;;10.30;;
55913;SDS011;58179;48.776;9.124;2023-04-25T16:45:28;17.93;;;9.87;;
55913;SDS011;58179;48.776;9.124;2023-04-25T16:47:53;23.08;;;11.98;;
55913;SDS011;58179;48.776;9.124;2023-04-25T16:50:19;16.80;;;11.75;;
55913;SDS011;58179;48.776;9.124;2023-04-25T16:52:45;16.88;;;10.82;;
55913;SDS011;58179;48.776;9.124;2023-04-25T16:55:13;21.17;;;12.05;;
55913;SDS011;58179;48.776;9.124;2023-04-25T16:57:38;19.38;;;11.98;;
55913;SDS011;58179;48.776;9.124;2023-04-25T17:00:05;19.05;;;10.85;;
55913;SDS011;58179;48.776;9.124;2023-04-25T17:02:33;16.98;;;10.20;;
55913;SDS011;58179;48.776;9.124;2023-04-25T17:04:59;17.92;;;10.15;;
55913;SDS011;58179;48.776;9.124;2023-04-25T17:07:25;15.70;;;10.27;;
55913;SDS011;58179;48.776;9.124;2023-04-25T17:09:51;17.27;;;10.70;;
55913;SDS011;58179;48.776;9.124;2023-04-25T17:12:19;18.92;;;11.23;;
55913;SDS011;58179;48.776;9.124;2023-04-25T17:14:45;21.02;;;12.60;;
55913;SDS011;58179;48.776;9.124;2023-04-25T17:17:11;18.70;;;11.00;;
55913;SDS011;58179;48.776;9.124;2023-04-25T17:19:37;25.88;;;13.55;;
55913;SDS011;58179;48.776;9.124;2023-04-25T17:22:03;21.10;;;11.75;;
55913;SDS011;58179;48.776;9.124;2023-04-25T17:24:29;21.87;;;12.37;;
55913;SDS011;58179;48.776;9.124;2023-04-25T17:26:55;21.60;;;13.03;;
55913;SDS011;58179;48.776;9.124;2023-04-25T17:29:22;31.48;;;14.52;;
55913;SDS011;58179;48.776;9.124;2023-04-25T17:31:48;22.70;;;12.45;;
55913;SDS011;58179;48.776;9.124;2023-04-25T17:34:14;20.70;;;12.20;;
55913;SDS011;58179;48.776;9.124;2023-04-25T17:36:43;27.07;;;13.40;;
55913;SDS011;58179;48.776;9.124;2023-04-25T17:39:09;31.08;;;16.13;;
55913;SDS011;58179;48.776;9.124;2023-04-25T17:41:35;31.63;;;14.77;;
55913;SDS011;58179;48.776;9.124;2023-04-25T17:44:02;37.27;;;16.30;;
55913;SDS011;58179;48.776;9.124;2023-04-25T17:46:29;30.85;;;15.15;;